Ride Results

Portland Endurance St Helens (17-10-2009)
Ride distance: 80.0 km

Outcomes - Portland Endurance St Helens (17-10-2009)
Division No. of Entries Retired / DNE Completed Withdrawn Ineligible V/O Percentage Completed
HW 10 - 7 1 - 2 70.00%
MW 21 - 14 - - 7 66.67%
LW 11 - 10 - - 1 90.91%
JN 8 - 7 - - 1 87.50%
Totals 50 - 38 1 - 11 76.00%
Results - Portland Endurance St Helens (17-10-2009)
No. Rider Horse Place Time Leg Speeds Total
Km/Hr
H/R bpm
Heavyweight
140 Stuart King Alcheringa Shopanii 1 (BC) 5:24:01 19.6, 11.8 14.81 40, 53, 53 (Avg:53)
45 Denise Williams Valley Springs Summer Haze 2 5:35:00 15.6, 13.1 14.33 37, 49, 54 (Avg:51)
98 Greg Johnson Bevolin Races The Wind 3 6:30:01 13.2, 11.4 12.31 43, 48, 56 (Avg:52)
122 Ged Nicklason Bellatrix Witch 4 6:37:00 13.0, 11.2 12.09 34, 49, 57 (Avg:53)
93 Jeremy Ford Ruby Running Bare 5 6:45:02 13.1, 10.8 11.85 38, 48, 50 (Avg:49)
F Noel Lockhart Ralvon Splendour 6 7:04:03 12.4, 10.3 11.32 31, 39, 45 (Avg:42)
47 Alison Colbeck Malricia TC Jilagic 7 7:15:04 13.0, 9.5 11.03 39, 49, 56 (Avg:52)
155 Gaylene Renwick Elphyn Flame Heart Rate L2 0:00:00 12.9, 9.5 - 43, 46, 82 (Avg:64)
185 Penny Barnes Mrs Boyde Withdrawn L1 0:00:00 - - 54, 47 (Avg:47)
70 Allan Wyllie At Dial Range Milo Lame L1 0:00:00 11.1 - 40, 51 (Avg:51)
Middleweight
68 Janine Parr Madame Pandora 1 5:23:00 16.1, 13.7 14.86 34, 50, 51 (Avg:50)
21 Kylie Williams Baye 1 (BC) 5:23:00 16.1, 13.7 14.86 39, 47, 51 (Avg:49)
99 Heather Johnson Black Heart Dashar 3 5:24:03 17.6, 12.7 14.81 46, 49, 53 (Avg:51)
180 Nicole Ford Jemma 4 6:18:02 15.3, 10.8 12.70 37, 49, 52 (Avg:50)
197 Erin Gadsby Saaremaa Park Safi Latif 5 6:27:00 15.4, 10.3 12.40 40, 55, 56 (Avg:55)
76 Karin Morris Capleach Samirah 6 7:02:01 12.4, 10.4 11.37 44, 45, 52 (Avg:48)
48 Toni Sheehan Sandine Artic Express 7 7:15:03 12.9, 9.5 11.03 36, 41, 42 (Avg:41)
30 Karyn Holden Anekib 8 7:54:00 11.1, 9.2 10.13 44, 40, 46 (Avg:43)
102 Keryn Mahoney Tonki Dee Boo Cheers 9 8:04:00 10.6, 9.3 9.92 41, 46, 50 (Avg:48)
4 Helen Bowkett Victar 10 8:14:00 10.3, 9.1 9.72 52, 51, 56 (Avg:53)
162 Linda Pilgrim Lauralyn Travis 11 8:18:00 10.0, 9.2 9.64 45, 47, 50 (Avg:48)
43 Bonny Burgess Rythem 12 8:20:00 10.2, 9.0 9.60 40, 42, 44 (Avg:43)
22 Helen Astell Underwood Infinity 13 8:55:02 9.9, 8.1 8.97 46, 45, 51 (Avg:48)
160 Stacey Dodd Cameo Izaiah 14 8:55:05 11.0, 7.5 8.97 42, 44, 47 (Avg:45)
199 Kellie Burford Sharnier Park Minhaan Lame L2 0:00:00 10.0, 9.2 - 40, 43, 47 (Avg:45)
41 Andrew Driscoll Davlyn Park Pegasus Lame L2 0:00:00 10.2, 9.0 - 46, 50, 46 (Avg:48)
169 Brent Marshall Pterion Angelica Lame L2 0:00:00 13.1, 10.8 - 45, 44, 60 (Avg:52)
173 Christine Brown Dial Range Saphira Lame L1 0:00:00 12.4 - 39, 46 (Avg:46)
198 Carolyn Foley-Jones Valley Park My Solotaire Lame L1 0:00:00 15.3 - 38, 48 (Avg:48)
38 Tony Purton Beer Street Tiger Lily Lame L1 0:00:00 19.6 - 38, 49 (Avg:49)
88 Anthony Bloom Kerribea Lame P/R 0:00:00 - - 36
Lightweight
136 Kaye Mitchell Krystal Creek Karisma 1 (BC) 5:24:02 17.6, 12.7 14.81 38, 53, 52 (Avg:52)
144 Helan Green Snowdon Vale Estarah 2 6:10:01 14.2, 11.9 12.97 83, 53, 51 (Avg:52)
161 Mary Parkinson Elphyn Shadow 3 6:18:02 14.3, 11.3 12.70 35, 49, 58 (Avg:53)
37 Jen Clingly Imaj Zamir 4 6:45:01 13.4, 10.6 11.85 36, 48, 56 (Avg:52)
77 Alison Lockhart Kantar Abia Park Ilona 5 7:04:00 12.4, 10.3 11.32 62, 55, 55 (Avg:55)
179 Debbie Grull Sandine Versacee 6 7:15:02 13.1, 9.5 11.03 44, 41, 53 (Avg:47)
1 Ann Richards Tonki Dee Boo Pricilla 7 8:04:02 10.6, 9.3 9.92 60, 40, 45 (Avg:42)
188 Phoebe Harper Banks Canyonleigh Serendipity Belle 8 8:55:01 9.8, 8.2 8.97 45, 47, 50 (Avg:48)
117 Penny Lasdauskas Winston 9 8:55:03 9.7, 8.2 8.97 35, 39, 51 (Avg:45)
19 Sonia Hodgetts Cameo Roze Red 10 8:55:06 11.0, 7.5 8.97 38, 47, 54 (Avg:50)
184 Janelle McLeod Nismo's Magician Lame L1 0:00:00 13.1 - 45, 53 (Avg:53)
Junior
79 Shannon Hill Glendhu Judah 1 (BC) 5:08:00 18.3, 13.5 15.58 41, 53, 53 (Avg:53)
121 Darcy Nicklason Canyonleigh Ambassador 2 6:37:02 13.1, 11.2 12.09 48, 54, 54 (Avg:54)
135 Breaana Smith Sharabhan Sashmah 3 7:01:01 12.2, 10.6 11.40 39, 42, 42 (Avg:42)
146 Raquel Clark At Dial Range Scopus 4 7:04:01 11.1, 11.4 11.32 48, 49, 50 (Avg:49)
150 Emily Shadbolt Woodsong Kasanova 5 7:54:02 11.1, 9.2 10.13 36, 42, 49 (Avg:45)
200 Josie Lazdauskas Wendy Lalani 6 8:55:04 9.7, 8.2 8.97 52, 52, 55 (Avg:53)
18 Sheleah Astell Beer Street Lestat 7 8:55:07 9.9, 8.1 8.97 45, 48, 50 (Avg:49)
78 Brad Hill Lockleigh Park Misty Rose Lame L1 0:00:00 18.3 - 52, 47 (Avg:47)